sensor_id;sensor_type;location;lat;lon;timestamp;temperature;humidity
11246;DHT22;59870;50.106;8.580;2023-02-28T00:01:25;5.40;67.10
11246;DHT22;59870;50.106;8.580;2023-02-28T00:03:54;5.30;66.10
11246;DHT22;59870;50.106;8.580;2023-02-28T00:06:21;5.40;67.10
11246;DHT22;59870;50.106;8.580;2023-02-28T00:08:48;5.30;67.10
11246;DHT22;59870;50.106;8.580;2023-02-28T00:11:16;5.20;67.40
11246;DHT22;59870;50.106;8.580;2023-02-28T00:13:45;5.20;66.70
11246;DHT22;59870;50.106;8.580;2023-02-28T00:16:20;5.10;67.70
11246;DHT22;59870;50.106;8.580;2023-02-28T00:18:48;5.10;68.10
11246;DHT22;59870;50.106;8.580;2023-02-28T00:21:17;5.00;68.00
11246;DHT22;59870;50.106;8.580;2023-02-28T00:23:46;5.00;68.60
11246;DHT22;59870;50.106;8.580;2023-02-28T00:26:14;4.90;68.60
11246;DHT22;59870;50.106;8.580;2023-02-28T00:28:44;4.90;67.90
11246;DHT22;59870;50.106;8.580;2023-02-28T00:31:12;4.90;67.90
11246;DHT22;59870;50.106;8.580;2023-02-28T00:33:39;4.90;68.70
11246;DHT22;59870;50.106;8.580;2023-02-28T00:36:09;4.90;69.40
11246;DHT22;59870;50.106;8.580;2023-02-28T00:38:37;4.90;69.60
11246;DHT22;59870;50.106;8.580;2023-02-28T00:41:05;4.80;69.30
11246;DHT22;59870;50.106;8.580;2023-02-28T00:43:34;4.80;69.20
11246;DHT22;59870;50.106;8.580;2023-02-28T00:46:03;4.70;69.50
11246;DHT22;59870;50.106;8.580;2023-02-28T00:48:31;4.80;69.70
11246;DHT22;59870;50.106;8.580;2023-02-28T00:50:59;4.70;69.90
11246;DHT22;59870;50.106;8.580;2023-02-28T00:53:27;4.70;69.60
11246;DHT22;59870;50.106;8.580;2023-02-28T00:55:57;4.70;70.00
11246;DHT22;59870;50.106;8.580;2023-02-28T00:58:26;4.70;70.00
11246;DHT22;59870;50.106;8.580;2023-02-28T01:00:54;4.70;70.50
11246;DHT22;59870;50.106;8.580;2023-02-28T01:03:22;4.70;70.80
11246;DHT22;59870;50.106;8.580;2023-02-28T01:05:50;4.70;70.70
11246;DHT22;59870;50.106;8.580;2023-02-28T01:08:20;4.70;71.00
11246;DHT22;59870;50.106;8.580;2023-02-28T01:10:47;4.60;70.40
11246;DHT22;59870;50.106;8.580;2023-02-28T01:13:15;4.60;71.50
11246;DHT22;59870;50.106;8.580;2023-02-28T01:15:49;4.60;71.80
11246;DHT22;59870;50.106;8.580;2023-02-28T01:18:19;4.60;71.50
11246;DHT22;59870;50.106;8.580;2023-02-28T01:20:48;4.60;72.00
11246;DHT22;59870;50.106;8.580;2023-02-28T01:23:16;4.50;72.00
11246;DHT22;59870;50.106;8.580;2023-02-28T01:25:43;4.50;72.20
11246;DHT22;59870;50.106;8.580;2023-02-28T01:28:11;4.40;73.20
11246;DHT22;59870;50.106;8.580;2023-02-28T01:30:38;4.40;73.30
11246;DHT22;59870;50.106;8.580;2023-02-28T01:33:06;4.40;72.40
11246;DHT22;59870;50.106;8.580;2023-02-28T01:35:34;4.30;73.80
11246;DHT22;59870;50.106;8.580;2023-02-28T01:38:02;4.30;73.80
11246;DHT22;59870;50.106;8.580;2023-02-28T01:40:47;4.30;74.00
11246;DHT22;59870;50.106;8.580;2023-02-28T01:43:28;4.20;73.80
11246;DHT22;59870;50.106;8.580;2023-02-28T01:45:57;4.20;74.00
11246;DHT22;59870;50.106;8.580;2023-02-28T01:48:29;4.20;74.90
11246;DHT22;59870;50.106;8.580;2023-02-28T01:51:00;4.10;75.70
11246;DHT22;59870;50.106;8.580;2023-02-28T01:53:33;4.00;75.40
11246;DHT22;59870;50.106;8.580;2023-02-28T01:56:05;4.00;75.20
11246;DHT22;59870;50.106;8.580;2023-02-28T01:58:34;4.10;75.30
11246;DHT22;59870;50.106;8.580;2023-02-28T02:01:02;4.10;75.10
11246;DHT22;59870;50.106;8.580;2023-02-28T02:03:31;4.20;75.40
11246;DHT22;59870;50.106;8.580;2023-02-28T02:05:58;4.20;75.40
11246;DHT22;59870;50.106;8.580;2023-02-28T02:08:28;4.10;75.80
11246;DHT22;59870;50.106;8.580;2023-02-28T02:10:57;4.20;75.70
11246;DHT22;59870;50.106;8.580;2023-02-28T02:24:26;4.10;75.40
11246;DHT22;59870;50.106;8.580;2023-02-28T02:27:24;4.10;75.80
11246;DHT22;59870;50.106;8.580;2023-02-28T02:30:06;4.00;75.40
11246;DHT22;59870;50.106;8.580;2023-02-28T02:35:31;4.00;75.90
11246;DHT22;59870;50.106;8.580;2023-02-28T02:38:09;3.90;75.10
11246;DHT22;59870;50.106;8.580;2023-02-28T02:40:43;3.80;76.50
11246;DHT22;59870;50.106;8.580;2023-02-28T02:43:22;3.80;76.70
11246;DHT22;59870;50.106;8.580;2023-02-28T02:46:11;3.80;76.40
11246;DHT22;59870;50.106;8.580;2023-02-28T02:48:41;3.80;76.20
11246;DHT22;59870;50.106;8.580;2023-02-28T02:51:16;3.80;76.20
11246;DHT22;59870;50.106;8.580;2023-02-28T02:53:52;3.80;76.20
11246;DHT22;59870;50.106;8.580;2023-02-28T02:56:25;3.80;76.40
11246;DHT22;59870;50.106;8.580;2023-02-28T02:59:02;3.70;76.10
11246;DHT22;59870;50.106;8.580;2023-02-28T03:01:32;3.70;76.20
11246;DHT22;59870;50.106;8.580;2023-02-28T03:04:05;3.70;76.10
11246;DHT22;59870;50.106;8.580;2023-02-28T03:06:33;4.30;77.00
11246;DHT22;59870;50.106;8.580;2023-02-28T03:09:02;3.60;75.80
11246;DHT22;59870;50.106;8.580;2023-02-28T03:11:32;3.60;75.50
11246;DHT22;59870;50.106;8.580;2023-02-28T03:20:27;3.50;76.80
11246;DHT22;59870;50.106;8.580;2023-02-28T03:23:11;3.40;76.80
11246;DHT22;59870;50.106;8.580;2023-02-28T03:31:21;3.40;76.30
11246;DHT22;59870;50.106;8.580;2023-02-28T03:34:25;3.40;76.50
11246;DHT22;59870;50.106;8.580;2023-02-28T03:36:58;3.40;76.20
11246;DHT22;59870;50.106;8.580;2023-02-28T03:39:37;3.40;76.60
11246;DHT22;59870;50.106;8.580;2023-02-28T03:42:19;3.40;76.60
11246;DHT22;59870;50.106;8.580;2023-02-28T03:45:18;3.30;76.50
11246;DHT22;59870;50.106;8.580;2023-02-28T03:47:52;3.60;76.40
11246;DHT22;59870;50.106;8.580;2023-02-28T03:50:35;3.30;76.50
11246;DHT22;59870;50.106;8.580;2023-02-28T03:58:51;3.40;76.30
11246;DHT22;59870;50.106;8.580;2023-02-28T04:01:25;3.40;76.50
11246;DHT22;59870;50.106;8.580;2023-02-28T04:03:55;3.40;76.90
11246;DHT22;59870;50.106;8.580;2023-02-28T04:06:23;3.40;77.00
11246;DHT22;59870;50.106;8.580;2023-02-28T04:08:51;3.30;77.30
11246;DHT22;59870;50.106;8.580;2023-02-28T04:11:30;3.30;77.90
11246;DHT22;59870;50.106;8.580;2023-02-28T04:13:58;3.20;77.80
11246;DHT22;59870;50.106;8.580;2023-02-28T04:16:25;3.20;77.70
11246;DHT22;59870;50.106;8.580;2023-02-28T04:19:03;3.20;77.80
11246;DHT22;59870;50.106;8.580;2023-02-28T04:21:36;3.20;77.80
11246;DHT22;59870;50.106;8.580;2023-02-28T04:24:08;3.20;77.90
11246;DHT22;59870;50.106;8.580;2023-02-28T04:26:36;3.20;78.20
11246;DHT22;59870;50.106;8.580;2023-02-28T04:29:06;3.10;78.10
11246;DHT22;59870;50.106;8.580;2023-02-28T04:31:34;3.10;78.20
11246;DHT22;59870;50.106;8.580;2023-02-28T04:34:02;3.10;78.00
11246;DHT22;59870;50.106;8.580;2023-02-28T04:36:30;3.10;78.60
11246;DHT22;59870;50.106;8.580;2023-02-28T04:38:57;3.10;77.80
11246;DHT22;59870;50.106;8.580;2023-02-28T04:41:24;3.10;77.80
11246;DHT22;59870;50.106;8.580;2023-02-28T04:43:53;3.10;78.40
11246;DHT22;59870;50.106;8.580;2023-02-28T04:46:22;3.10;78.00
11246;DHT22;59870;50.106;8.580;2023-02-28T04:48:49;3.20;78.00
11246;DHT22;59870;50.106;8.580;2023-02-28T04:51:18;3.20;77.00
11246;DHT22;59870;50.106;8.580;2023-02-28T04:53:47;3.20;77.70
11246;DHT22;59870;50.106;8.580;2023-02-28T04:56:16;3.20;77.80
11246;DHT22;59870;50.106;8.580;2023-02-28T04:58:44;3.20;77.70
11246;DHT22;59870;50.106;8.580;2023-02-28T05:03:49;3.20;77.50
11246;DHT22;59870;50.106;8.580;2023-02-28T05:06:17;3.20;77.50
11246;DHT22;59870;50.106;8.580;2023-02-28T05:08:45;3.20;77.70
11246;DHT22;59870;50.106;8.580;2023-02-28T05:11:18;3.20;77.60
11246;DHT22;59870;50.106;8.580;2023-02-28T05:13:46;3.20;77.80
11246;DHT22;59870;50.106;8.580;2023-02-28T05:16:14;3.20;77.70
11246;DHT22;59870;50.106;8.580;2023-02-28T05:18:41;3.20;77.40
11246;DHT22;59870;50.106;8.580;2023-02-28T05:21:24;3.20;76.70
11246;DHT22;59870;50.106;8.580;2023-02-28T05:23:52;3.20;76.40
11246;DHT22;59870;50.106;8.580;2023-02-28T05:26:20;3.10;77.00
11246;DHT22;59870;50.106;8.580;2023-02-28T05:28:47;3.20;77.20
11246;DHT22;59870;50.106;8.580;2023-02-28T05:31:16;3.20;76.00
11246;DHT22;59870;50.106;8.580;2023-02-28T05:33:43;3.20;76.50
11246;DHT22;59870;50.106;8.580;2023-02-28T05:36:10;3.20;76.50
11246;DHT22;59870;50.106;8.580;2023-02-28T05:38:38;3.20;76.30
11246;DHT22;59870;50.106;8.580;2023-02-28T05:41:09;3.20;75.80
11246;DHT22;59870;50.106;8.580;2023-02-28T05:43:37;3.20;76.30
11246;DHT22;59870;50.106;8.580;2023-02-28T05:46:06;3.20;76.00
11246;DHT22;59870;50.106;8.580;2023-02-28T05:48:35;3.20;76.00
11246;DHT22;59870;50.106;8.580;2023-02-28T05:51:04;3.20;75.00
11246;DHT22;59870;50.106;8.580;2023-02-28T05:53:32;3.30;76.10
11246;DHT22;59870;50.106;8.580;2023-02-28T05:56:00;3.20;75.90
11246;DHT22;59870;50.106;8.580;2023-02-28T05:58:28;3.20;75.80
11246;DHT22;59870;50.106;8.580;2023-02-28T06:00:59;3.20;75.50
11246;DHT22;59870;50.106;8.580;2023-02-28T06:03:27;3.30;75.70
11246;DHT22;59870;50.106;8.580;2023-02-28T06:05:54;3.30;74.90
11246;DHT22;59870;50.106;8.580;2023-02-28T06:08:22;3.20;75.30
11246;DHT22;59870;50.106;8.580;2023-02-28T06:10:49;3.30;76.10
11246;DHT22;59870;50.106;8.580;2023-02-28T06:13:17;3.30;75.20
11246;DHT22;59870;50.106;8.580;2023-02-28T06:15:44;3.20;75.00
11246;DHT22;59870;50.106;8.580;2023-02-28T06:18:11;3.20;75.00
11246;DHT22;59870;50.106;8.580;2023-02-28T06:20:38;3.20;74.20
11246;DHT22;59870;50.106;8.580;2023-02-28T06:23:06;3.30;75.00
11246;DHT22;59870;50.106;8.580;2023-02-28T06:25:33;3.30;75.10
11246;DHT22;59870;50.106;8.580;2023-02-28T06:28:01;3.30;74.90
11246;DHT22;59870;50.106;8.580;2023-02-28T06:30:28;3.40;74.80
11246;DHT22;59870;50.106;8.580;2023-02-28T06:32:57;3.40;74.80
11246;DHT22;59870;50.106;8.580;2023-02-28T06:35:24;3.40;74.70
11246;DHT22;59870;50.106;8.580;2023-02-28T06:37:51;3.40;73.70
11246;DHT22;59870;50.106;8.580;2023-02-28T06:40:19;3.40;74.60
11246;DHT22;59870;50.106;8.580;2023-02-28T06:42:46;3.30;74.80
11246;DHT22;59870;50.106;8.580;2023-02-28T06:45:13;3.30;74.90
11246;DHT22;59870;50.106;8.580;2023-02-28T06:47:41;3.30;75.00
11246;DHT22;59870;50.106;8.580;2023-02-28T06:50:10;3.30;74.80
11246;DHT22;59870;50.106;8.580;2023-02-28T06:52:38;3.30;74.80
11246;DHT22;59870;50.106;8.580;2023-02-28T06:55:07;3.30;74.20
11246;DHT22;59870;50.106;8.580;2023-02-28T06:57:35;3.30;75.00
11246;DHT22;59870;50.106;8.580;2023-02-28T07:00:09;3.20;74.90
11246;DHT22;59870;50.106;8.580;2023-02-28T07:02:37;3.30;74.80
11246;DHT22;59870;50.106;8.580;2023-02-28T07:05:05;3.30;74.70
11246;DHT22;59870;50.106;8.580;2023-02-28T07:07:33;3.30;74.70
11246;DHT22;59870;50.106;8.580;2023-02-28T07:10:01;3.30;74.90
11246;DHT22;59870;50.106;8.580;2023-02-28T07:12:28;3.30;74.80
11246;DHT22;59870;50.106;8.580;2023-02-28T07:14:55;3.30;74.80
11246;DHT22;59870;50.106;8.580;2023-02-28T07:17:23;3.30;74.80
11246;DHT22;59870;50.106;8.580;2023-02-28T07:19:51;3.90;75.50
11246;DHT22;59870;50.106;8.580;2023-02-28T07:22:18;3.30;74.80
11246;DHT22;59870;50.106;8.580;2023-02-28T07:24:46;3.40;74.90
11246;DHT22;59870;50.106;8.580;2023-02-28T07:27:14;3.40;75.00
11246;DHT22;59870;50.106;8.580;2023-02-28T07:29:52;3.70;75.30
11246;DHT22;59870;50.106;8.580;2023-02-28T07:32:26;3.30;75.40
11246;DHT22;59870;50.106;8.580;2023-02-28T07:34:53;3.30;75.40
11246;DHT22;59870;50.106;8.580;2023-02-28T07:37:22;3.30;75.60
11246;DHT22;59870;50.106;8.580;2023-02-28T07:39:49;3.40;75.90
11246;DHT22;59870;50.106;8.580;2023-02-28T07:42:16;3.40;75.60
11246;DHT22;59870;50.106;8.580;2023-02-28T07:44:44;3.40;75.10
11246;DHT22;59870;50.106;8.580;2023-02-28T07:47:13;4.00;75.20
11246;DHT22;59870;50.106;8.580;2023-02-28T07:49:40;3.50;74.70
11246;DHT22;59870;50.106;8.580;2023-02-28T07:52:07;3.70;74.80
11246;DHT22;59870;50.106;8.580;2023-02-28T07:54:37;3.60;74.70
11246;DHT22;59870;50.106;8.580;2023-02-28T07:57:05;3.70;74.60
11246;DHT22;59870;50.106;8.580;2023-02-28T07:59:33;3.80;75.00
11246;DHT22;59870;50.106;8.580;2023-02-28T08:02:00;3.90;74.40
11246;DHT22;59870;50.106;8.580;2023-02-28T08:04:32;4.00;74.30
11246;DHT22;59870;50.106;8.580;2023-02-28T08:07:02;4.40;74.00
11246;DHT22;59870;50.106;8.580;2023-02-28T08:09:33;4.50;73.90
11246;DHT22;59870;50.106;8.580;2023-02-28T08:12:05;4.20;72.20
11246;DHT22;59870;50.106;8.580;2023-02-28T08:14:49;4.30;73.30
11246;DHT22;59870;50.106;8.580;2023-02-28T08:17:16;4.50;72.40
11246;DHT22;59870;50.106;8.580;2023-02-28T08:19:47;4.60;71.80
11246;DHT22;59870;50.106;8.580;2023-02-28T08:22:15;4.70;71.10
11246;DHT22;59870;50.106;8.580;2023-02-28T08:24:42;4.80;71.30
11246;DHT22;59870;50.106;8.580;2023-02-28T08:30:35;5.10;70.70
11246;DHT22;59870;50.106;8.580;2023-02-28T08:33:03;5.40;69.30
11246;DHT22;59870;50.106;8.580;2023-02-28T08:35:36;5.60;68.40
11246;DHT22;59870;50.106;8.580;2023-02-28T08:38:04;5.80;67.50
11246;DHT22;59870;50.106;8.580;2023-02-28T08:40:35;6.10;68.20
11246;DHT22;59870;50.106;8.580;2023-02-28T08:43:03;6.30;66.30
11246;DHT22;59870;50.106;8.580;2023-02-28T08:45:31;6.60;63.90
11246;DHT22;59870;50.106;8.580;2023-02-28T08:47:58;6.80;62.60
11246;DHT22;59870;50.106;8.580;2023-02-28T08:50:26;6.90;60.30
11246;DHT22;59870;50.106;8.580;2023-02-28T08:52:54;7.10;60.30
11246;DHT22;59870;50.106;8.580;2023-02-28T08:55:28;7.40;59.20
11246;DHT22;59870;50.106;8.580;2023-02-28T08:58:36;7.70;58.00
11246;DHT22;59870;50.106;8.580;2023-02-28T09:01:36;7.60;57.60
11246;DHT22;59870;50.106;8.580;2023-02-28T09:05:35;8.00;55.00
11246;DHT22;59870;50.106;8.580;2023-02-28T09:08:05;9.00;55.60
11246;DHT22;59870;50.106;8.580;2023-02-28T09:10:37;9.20;54.50
11246;DHT22;59870;50.106;8.580;2023-02-28T09:13:09;8.70;54.40
11246;DHT22;59870;50.106;8.580;2023-02-28T09:15:38;9.30;54.10
11246;DHT22;59870;50.106;8.580;2023-02-28T09:18:06;9.50;53.30
11246;DHT22;59870;50.106;8.580;2023-02-28T09:20:34;9.20;51.40
11246;DHT22;59870;50.106;8.580;2023-02-28T09:23:01;10.00;51.30
11246;DHT22;59870;50.106;8.580;2023-02-28T09:25:28;10.00;49.90
11246;DHT22;59870;50.106;8.580;2023-02-28T09:27:56;10.10;50.00
11246;DHT22;59870;50.106;8.580;2023-02-28T09:30:23;10.10;49.80
11246;DHT22;59870;50.106;8.580;2023-02-28T09:32:51;10.30;50.60
11246;DHT22;59870;50.106;8.580;2023-02-28T09:35:23;10.80;48.60
11246;DHT22;59870;50.106;8.580;2023-02-28T09:37:52;10.70;49.70
11246;DHT22;59870;50.106;8.580;2023-02-28T09:40:24;10.90;49.00
11246;DHT22;59870;50.106;8.580;2023-02-28T09:42:55;10.60;46.30
11246;DHT22;59870;50.106;8.580;2023-02-28T09:47:56;10.50;48.00
11246;DHT22;59870;50.106;8.580;2023-02-28T09:53:21;10.40;46.10
11246;DHT22;59870;50.106;8.580;2023-02-28T09:55:51;10.30;47.40
11246;DHT22;59870;50.106;8.580;2023-02-28T09:58:34;10.40;46.80
11246;DHT22;59870;50.106;8.580;2023-02-28T10:06:49;10.60;48.00
11246;DHT22;59870;50.106;8.580;2023-02-28T10:09:21;10.60;46.50
11246;DHT22;59870;50.106;8.580;2023-02-28T10:11:52;10.60;46.20
11246;DHT22;59870;50.106;8.580;2023-02-28T10:14:26;10.40;46.00
11246;DHT22;59870;50.106;8.580;2023-02-28T10:23:39;9.50;48.00
11246;DHT22;59870;50.106;8.580;2023-02-28T10:26:12;9.30;48.50
11246;DHT22;59870;50.106;8.580;2023-02-28T10:28:40;9.30;48.60
11246;DHT22;59870;50.106;8.580;2023-02-28T10:31:13;9.20;48.70
11246;DHT22;59870;50.106;8.580;2023-02-28T10:33:42;9.30;48.40
11246;DHT22;59870;50.106;8.580;2023-02-28T10:36:14;9.20;48.30
11246;DHT22;59870;50.106;8.580;2023-02-28T10:38:43;8.60;49.10
11246;DHT22;59870;50.106;8.580;2023-02-28T10:41:17;8.90;47.40
11246;DHT22;59870;50.106;8.580;2023-02-28T10:44:22;8.80;48.50
11246;DHT22;59870;50.106;8.580;2023-02-28T10:46:51;8.60;48.90
11246;DHT22;59870;50.106;8.580;2023-02-28T10:49:27;8.60;47.80
11246;DHT22;59870;50.106;8.580;2023-02-28T10:52:00;8.40;48.00
11246;DHT22;59870;50.106;8.580;2023-02-28T10:54:36;8.40;49.20
11246;DHT22;59870;50.106;8.580;2023-02-28T10:57:18;8.40;49.30
11246;DHT22;59870;50.106;8.580;2023-02-28T10:59:51;8.50;49.30
11246;DHT22;59870;50.106;8.580;2023-02-28T11:02:34;8.60;48.70
11246;DHT22;59870;50.106;8.580;2023-02-28T11:05:10;8.70;48.40
11246;DHT22;59870;50.106;8.580;2023-02-28T11:08:16;8.70;47.30
11246;DHT22;59870;50.106;8.580;2023-02-28T11:10:46;8.60;48.60
11246;DHT22;59870;50.106;8.580;2023-02-28T11:13:20;8.60;47.70
11246;DHT22;59870;50.106;8.580;2023-02-28T11:15:57;8.50;48.30
11246;DHT22;59870;50.106;8.580;2023-02-28T11:18:30;8.50;48.10
11246;DHT22;59870;50.106;8.580;2023-02-28T11:21:01;8.40;48.00
11246;DHT22;59870;50.106;8.580;2023-02-28T11:23:31;8.30;47.90
11246;DHT22;59870;50.106;8.580;2023-02-28T11:26:04;8.20;48.60
11246;DHT22;59870;50.106;8.580;2023-02-28T11:28:34;8.10;48.30
11246;DHT22;59870;50.106;8.580;2023-02-28T11:31:05;8.10;48.70
11246;DHT22;59870;50.106;8.580;2023-02-28T11:36:23;8.10;49.10
11246;DHT22;59870;50.106;8.580;2023-02-28T11:38:55;8.10;48.90
11246;DHT22;59870;50.106;8.580;2023-02-28T11:41:57;8.00;49.30
11246;DHT22;59870;50.106;8.580;2023-02-28T11:44:36;8.10;49.70
11246;DHT22;59870;50.106;8.580;2023-02-28T11:47:17;8.10;49.30
11246;DHT22;59870;50.106;8.580;2023-02-28T11:52:47;8.00;49.40
11246;DHT22;59870;50.106;8.580;2023-02-28T11:55:26;7.90;49.70
11246;DHT22;59870;50.106;8.580;2023-02-28T12:09:32;8.20;50.60
11246;DHT22;59870;50.106;8.580;2023-02-28T12:12:21;8.20;50.50
11246;DHT22;59870;50.106;8.580;2023-02-28T12:15:13;8.10;49.40
11246;DHT22;59870;50.106;8.580;2023-02-28T12:17:52;8.10;49.70
11246;DHT22;59870;50.106;8.580;2023-02-28T12:20:50;8.10;49.70
11246;DHT22;59870;50.106;8.580;2023-02-28T12:26:13;7.90;49.50
11246;DHT22;59870;50.106;8.580;2023-02-28T12:28:47;8.00;50.00
11246;DHT22;59870;50.106;8.580;2023-02-28T12:31:25;8.40;50.30
11246;DHT22;59870;50.106;8.580;2023-02-28T12:34:00;8.10;50.30
11246;DHT22;59870;50.106;8.580;2023-02-28T12:44:02;8.30;49.80
11246;DHT22;59870;50.106;8.580;2023-02-28T12:46:41;8.30;49.30
11246;DHT22;59870;50.106;8.580;2023-02-28T12:49:23;8.20;49.80
11246;DHT22;59870;50.106;8.580;2023-02-28T12:51:53;8.30;50.10
11246;DHT22;59870;50.106;8.580;2023-02-28T12:59:51;8.20;50.00
11246;DHT22;59870;50.106;8.580;2023-02-28T13:11:05;8.10;50.30
11246;DHT22;59870;50.106;8.580;2023-02-28T13:13:46;7.90;50.90
11246;DHT22;59870;50.106;8.580;2023-02-28T13:16:13;7.80;50.30
11246;DHT22;59870;50.106;8.580;2023-02-28T13:18:45;7.70;50.40
11246;DHT22;59870;50.106;8.580;2023-02-28T13:21:24;7.90;51.30
11246;DHT22;59870;50.106;8.580;2023-02-28T13:24:03;7.80;51.30
11246;DHT22;59870;50.106;8.580;2023-02-28T13:29:28;7.90;50.50
11246;DHT22;59870;50.106;8.580;2023-02-28T13:34:41;7.90;50.70
11246;DHT22;59870;50.106;8.580;2023-02-28T13:37:42;7.90;51.20
11246;DHT22;59870;50.106;8.580;2023-02-28T13:47:43;7.90;50.70
11246;DHT22;59870;50.106;8.580;2023-02-28T13:59:08;8.00;50.60
11246;DHT22;59870;50.106;8.580;2023-02-28T14:01:56;8.00;50.50
11246;DHT22;59870;50.106;8.580;2023-02-28T14:04:48;8.00;50.80
11246;DHT22;59870;50.106;8.580;2023-02-28T14:07:26;8.00;50.80
11246;DHT22;59870;50.106;8.580;2023-02-28T14:09:59;8.10;50.90
11246;DHT22;59870;50.106;8.580;2023-02-28T14:15:42;8.20;50.60
11246;DHT22;59870;50.106;8.580;2023-02-28T14:18:19;8.20;51.00
11246;DHT22;59870;50.106;8.580;2023-02-28T14:20:49;8.20;50.70
11246;DHT22;59870;50.106;8.580;2023-02-28T14:23:41;8.20;50.90
11246;DHT22;59870;50.106;8.580;2023-02-28T14:29:25;8.10;51.20
11246;DHT22;59870;50.106;8.580;2023-02-28T14:35:13;8.20;51.60
11246;DHT22;59870;50.106;8.580;2023-02-28T14:37:44;8.20;51.20
11246;DHT22;59870;50.106;8.580;2023-02-28T14:40:21;8.20;50.50
11246;DHT22;59870;50.106;8.580;2023-02-28T14:42:59;8.00;50.80
11246;DHT22;59870;50.106;8.580;2023-02-28T14:45:29;8.10;51.10
11246;DHT22;59870;50.106;8.580;2023-02-28T14:47:58;8.10;51.10
11246;DHT22;59870;50.106;8.580;2023-02-28T14:50:36;8.10;51.00
11246;DHT22;59870;50.106;8.580;2023-02-28T14:53:09;8.60;51.00
11246;DHT22;59870;50.106;8.580;2023-02-28T14:55:45;8.20;51.20
11246;DHT22;59870;50.106;8.580;2023-02-28T14:58:23;8.20;51.40
11246;DHT22;59870;50.106;8.580;2023-02-28T15:00:52;8.30;51.40
11246;DHT22;59870;50.106;8.580;2023-02-28T15:03:34;8.30;51.50
11246;DHT22;59870;50.106;8.580;2023-02-28T15:06:13;8.20;51.60
11246;DHT22;59870;50.106;8.580;2023-02-28T15:08:41;8.50;52.10
11246;DHT22;59870;50.106;8.580;2023-02-28T15:11:13;8.20;51.20
11246;DHT22;59870;50.106;8.580;2023-02-28T15:13:45;8.20;51.60
11246;DHT22;59870;50.106;8.580;2023-02-28T15:16:28;8.20;51.80
11246;DHT22;59870;50.106;8.580;2023-02-28T15:19:23;8.20;51.50
11246;DHT22;59870;50.106;8.580;2023-02-28T15:22:13;8.20;52.10
11246;DHT22;59870;50.106;8.580;2023-02-28T15:24:47;8.20;52.00
11246;DHT22;59870;50.106;8.580;2023-02-28T15:27:27;8.40;51.70
11246;DHT22;59870;50.106;8.580;2023-02-28T15:30:00;8.40;51.80
11246;DHT22;59870;50.106;8.580;2023-02-28T15:32:37;8.40;51.80
11246;DHT22;59870;50.106;8.580;2023-02-28T15:35:29;8.30;51.80
11246;DHT22;59870;50.106;8.580;2023-02-28T15:38:11;8.20;52.10
11246;DHT22;59870;50.106;8.580;2023-02-28T15:40:46;8.20;52.50
11246;DHT22;59870;50.106;8.580;2023-02-28T15:43:28;8.30;52.60
11246;DHT22;59870;50.106;8.580;2023-02-28T15:46:02;8.30;52.10
11246;DHT22;59870;50.106;8.580;2023-02-28T15:51:21;8.40;52.00
11246;DHT22;59870;50.106;8.580;2023-02-28T15:54:12;8.40;52.30
11246;DHT22;59870;50.106;8.580;2023-02-28T15:56:47;8.40;52.10
11246;DHT22;59870;50.106;8.580;2023-02-28T15:59:23;8.40;52.30
11246;DHT22;59870;50.106;8.580;2023-02-28T16:05:40;8.40;52.60
11246;DHT22;59870;50.106;8.580;2023-02-28T16:07:43;8.40;52.10
11246;DHT22;59870;50.106;8.580;2023-02-28T16:10:12;8.30;52.20
11246;DHT22;59870;50.106;8.580;2023-02-28T16:12:42;8.30;52.40
11246;DHT22;59870;50.106;8.580;2023-02-28T16:17:47;8.20;52.60
11246;DHT22;59870;50.106;8.580;2023-02-28T16:20:21;8.20;52.10
11246;DHT22;59870;50.106;8.580;2023-02-28T16:22:49;8.30;52.40
11246;DHT22;59870;50.106;8.580;2023-02-28T16:25:19;8.30;52.50
11246;DHT22;59870;50.106;8.580;2023-02-28T16:27:49;8.20;52.20
11246;DHT22;59870;50.106;8.580;2023-02-28T16:30:23;8.30;53.20
11246;DHT22;59870;50.106;8.580;2023-02-28T16:32:51;8.30;53.20
11246;DHT22;59870;50.106;8.580;2023-02-28T16:35:19;8.30;53.20
11246;DHT22;59870;50.106;8.580;2023-02-28T16:37:47;8.30;52.90
11246;DHT22;59870;50.106;8.580;2023-02-28T16:40:17;8.30;53.30
11246;DHT22;59870;50.106;8.580;2023-02-28T16:42:45;8.40;53.40
11246;DHT22;59870;50.106;8.580;2023-02-28T16:45:28;8.40;53.40
11246;DHT22;59870;50.106;8.580;2023-02-28T16:47:56;8.30;53.40
11246;DHT22;59870;50.106;8.580;2023-02-28T16:50:29;8.30;53.40
11246;DHT22;59870;50.106;8.580;2023-02-28T16:52:57;8.20;53.50
11246;DHT22;59870;50.106;8.580;2023-02-28T16:55:26;8.20;53.60
11246;DHT22;59870;50.106;8.580;2023-02-28T16:57:56;8.20;53.50
11246;DHT22;59870;50.106;8.580;2023-02-28T17:00:25;8.20;53.70
11246;DHT22;59870;50.106;8.580;2023-02-28T17:02:53;8.20;53.60
11246;DHT22;59870;50.106;8.580;2023-02-28T17:05:21;8.20;53.20
11246;DHT22;59870;50.106;8.580;2023-02-28T17:07:49;8.20;53.40
11246;DHT22;59870;50.106;8.580;2023-02-28T17:10:23;8.20;53.00
11246;DHT22;59870;50.106;8.580;2023-02-28T17:12:52;8.10;53.50
11246;DHT22;59870;50.106;8.580;2023-02-28T17:15:29;8.10;53.90
11246;DHT22;59870;50.106;8.580;2023-02-28T17:17:58;8.00;53.90
11246;DHT22;59870;50.106;8.580;2023-02-28T17:20:25;7.90;54.00
11246;DHT22;59870;50.106;8.580;2023-02-28T17:22:54;7.90;53.90
11246;DHT22;59870;50.106;8.580;2023-02-28T17:25:22;7.90;54.20
11246;DHT22;59870;50.106;8.580;2023-02-28T17:27:50;7.90;54.20
11246;DHT22;59870;50.106;8.580;2023-02-28T17:30:24;7.80;54.30
11246;DHT22;59870;50.106;8.580;2023-02-28T17:32:52;7.80;54.40
11246;DHT22;59870;50.106;8.580;2023-02-28T17:35:19;7.80;53.90
11246;DHT22;59870;50.106;8.580;2023-02-28T17:37:46;7.70;53.90
11246;DHT22;59870;50.106;8.580;2023-02-28T17:40:22;7.80;54.50
11246;DHT22;59870;50.106;8.580;2023-02-28T17:42:50;7.80;54.50
11246;DHT22;59870;50.106;8.580;2023-02-28T17:45:19;7.70;53.90
11246;DHT22;59870;50.106;8.580;2023-02-28T17:47:48;7.70;54.60
11246;DHT22;59870;50.106;8.580;2023-02-28T17:50:20;7.60;54.50
11246;DHT22;59870;50.106;8.580;2023-02-28T17:52:48;7.60;54.70
11246;DHT22;59870;50.106;8.580;2023-02-28T17:55:17;7.70;54.70
11246;DHT22;59870;50.106;8.580;2023-02-28T17:57:48;7.70;54.10
11246;DHT22;59870;50.106;8.580;2023-02-28T18:00:16;7.70;54.10
11246;DHT22;59870;50.106;8.580;2023-02-28T18:02:45;7.70;55.20
11246;DHT22;59870;50.106;8.580;2023-02-28T18:05:12;7.70;54.40
11246;DHT22;59870;50.106;8.580;2023-02-28T18:07:40;7.70;54.10
11246;DHT22;59870;50.106;8.580;2023-02-28T18:10:19;7.70;54.80
11246;DHT22;59870;50.106;8.580;2023-02-28T18:12:51;8.10;55.10
11246;DHT22;59870;50.106;8.580;2023-02-28T18:15:20;7.60;54.80
11246;DHT22;59870;50.106;8.580;2023-02-28T18:17:48;7.60;54.90
11246;DHT22;59870;50.106;8.580;2023-02-28T18:20:16;7.50;54.90
11246;DHT22;59870;50.106;8.580;2023-02-28T18:22:43;7.50;55.30
11246;DHT22;59870;50.106;8.580;2023-02-28T18:25:12;7.50;55.20
11246;DHT22;59870;50.106;8.580;2023-02-28T18:27:44;7.50;55.30
11246;DHT22;59870;50.106;8.580;2023-02-28T18:30:28;7.40;55.50
11246;DHT22;59870;50.106;8.580;2023-02-28T18:33:00;7.40;55.10
11246;DHT22;59870;50.106;8.580;2023-02-28T18:35:28;7.40;55.80